Seattle, Washington
Traffic Map
Current Weather Conditions
Seattle, Washington
Overcast Light Rain
Overcast
50°
Feels Like: 50°
Wind Chill: 50° Ceiling: 5000
Heat Index: 50° Visibility: 7mi
Dew Point: 43° Wind: 10mph
Humidity: 77% Direction: 180° (S)
Pressure: 30.15in Gusts: 18mph
Raw Report DataKBFI 231153Z 18009G16KT 7SM -RA FEW030 BKN050 OVC080 10/06 A3015 RMK AO2 RAE15B44 SLP208 P0002 60005 70008 T01000061 10100 20078 50002
Traffic Incident Summary
Active as of:
Severity:
Category:
InformationThere was an issue retrieving the traffic information for this location. Please try a different location or try again shortly.
Advertisements
Track Severe Weather on mobile